Terminal Aerodrome Forecast
Issued by NWS Sterling, VA

Current Version | Previous Version | Text Only | Print | Product List | Glossary Off
Versions: 1 2 3 4 5 6 7 8 9 10 11 12 13 14 15

000
FTUS41 KLWX 281700
TAFMRB
TAF
KMRB 281728Z 2818/2918 29018G27KT P6SM SCT050
     FM290000 30011KT P6SM BKN050
     FM290300 29007KT P6SM BKN090
     FM290500 30006KT P6SM SCT090
     FM291500 31010KT P6SM SCT050 SCT250=

USA.gov is the U.S. government's official web portal to all federal, state and local government web resources and services.